Time;durP1;ratioP1;P1;durP2;ratioP2;P2;SDS_P1;SDS_P2;PMS_P1;PMS_P2;Temp;Humidity;BMP_temperature;BMP_pressure;BME280_temperature;BME280_humidity;BME280_pressure;Samples;Min_cycle;Max_cycle;Signal;HPM_P1;HPM_P2
2022/10/21 00:00:59;;;;;;;;;;;;;;;18.72;43.54;96006.38;6123035;19;1776;-72
2022/10/21 00:03:02;;;;;;;;;;;;;;;18.72;43.71;96001.06;6121164;19;1643;-72
2022/10/21 00:05:06;;;;;;;;;;;;;;;18.73;43.67;96005.38;6122098;19;1702;-72
2022/10/21 00:07:10;;;;;;;;;;;;;;;18.72;43.88;96006.38;6119731;19;1850;-72
2022/10/21 00:09:13;;;;;;;;;;;;;;;18.71;44.18;96010.88;6110896;19;1069;-71
2022/10/21 00:11:16;;;;;;;;;;;;;;;18.73;44.12;96010.72;6110534;19;1515;-72
2022/10/21 00:13:23;;;;;;;;;;;;;;;18.72;44.10;96006.38;6120811;19;1773;-73
2022/10/21 00:15:26;;;;;;;;;;;;;;;18.72;44.15;96006.38;6121649;19;1849;-72
2022/10/21 00:17:30;;;;;;;;;;;;;;;18.72;44.25;96007.22;6123411;19;1669;-71
2022/10/21 00:19:33;;;;;;;;;;;;;;;18.73;44.55;96002.72;6122625;19;1846;-71
2022/10/21 00:21:36;;;;;;;;;;;;;;;18.74;44.41;96002.53;6102562;19;1823;-72
2022/10/21 00:23:41;;;;;;;;;;;;;;;18.74;44.34;96001.72;6122606;19;1786;-72
2022/10/21 00:25:44;;;;;;;;;;;;;;;18.73;44.21;96000.88;6120403;19;1862;-71
2022/10/21 00:27:47;;;;;;;;;;;;;;;18.73;44.16;96000.88;6120308;19;1857;-71
2022/10/21 00:29:53;;;;;;;;;;;;;;;18.73;44.45;96005.38;6122185;19;1689;-72
2022/10/21 00:31:57;;;;;;;;;;;;;;;18.73;44.41;95997.41;6112655;19;1728;-71
2022/10/21 00:34:00;;;;;;;;;;;;;;;18.73;44.24;96003.56;6112199;19;1516;-71
2022/10/21 00:36:04;;;;;;;;;;;;;;;18.72;44.50;96001.06;6119468;19;1073;-73
2022/10/21 00:38:08;;;;;;;;;;;;;;;18.73;44.47;95992.06;6121657;19;1741;-72
2022/10/21 00:40:12;;;;;;;;;;;;;;;18.73;44.50;96002.72;6122151;19;1599;-71
2022/10/21 00:42:16;;;;;;;;;;;;;;;18.73;44.50;96000.06;6122047;19;1514;-72
2022/10/21 00:44:20;;;;;;;;;;;;;;;18.72;44.35;96001.06;6100858;19;1514;-71
2022/10/21 00:46:29;;;;;;;;;;;;;;;18.72;44.09;95995.72;6119847;19;1818;-71
2022/10/21 00:48:34;;;;;;;;;;;;;;;18.73;44.31;95997.41;6122328;19;1767;-71
2022/10/21 00:50:39;;;;;;;;;;;;;;;18.72;44.19;95985.06;6122361;19;1793;-71
2022/10/21 00:52:42;;;;;;;;;;;;;;;18.71;44.09;95994.06;6122366;19;1574;-72
2022/10/21 00:54:46;;;;;;;;;;;;;;;18.72;44.03;95990.41;6110611;19;1408;-73
2022/10/21 00:56:50;;;;;;;;;;;;;;;18.72;44.23;95990.41;6110560;19;1120;-72
2022/10/21 00:58:55;;;;;;;;;;;;;;;18.71;44.45;95994.06;6122709;19;1787;-71
2022/10/21 01:01:01;;;;;;;;;;;;;;;18.71;44.27;95984.25;6122698;19;1510;-71
2022/10/21 01:03:07;;;;;;;;;;;;;;;18.71;44.47;95983.44;6120610;19;1427;-70
2022/10/21 01:05:11;;;;;;;;;;;;;;;18.71;44.73;95978.09;6119338;19;1694;-70
2022/10/21 01:07:15;;;;;;;;;;;;;;;18.70;44.79;95982.59;6098557;19;1842;-70
2022/10/21 01:09:19;;;;;;;;;;;;;;;18.69;44.84;95978.25;6121877;19;1507;-70
2022/10/21 01:11:23;;;;;;;;;;;;;;;18.70;44.60;95981.78;6121170;19;1761;-71
2022/10/21 01:13:30;;;;;;;;;;;;;;;18.70;44.89;95976.47;6119467;19;1002;-71
2022/10/21 01:15:38;;;;;;;;;;;;;;;18.69;44.98;95974.78;6119429;19;1083;-71
2022/10/21 01:17:43;;;;;;;;;;;;;;;18.70;44.70;95987.09;6102963;19;1882;-71
2022/10/21 01:20:05;;;;;;;;;;;;;;;18.69;44.94;95974.78;6121142;19;1687;-71
2022/10/21 01:22:15;;;;;;;;;;;;;;;18.69;45.10;95977.44;6121587;19;1791;-71
2022/10/21 01:24:45;;;;;;;;;;;;;;;18.69;45.18;95978.25;6119463;19;1396;-71
2022/10/21 01:27:03;;;;;;;;;;;;;;;18.69;45.80;95983.59;6117010;19;1845;-71
2022/10/21 01:29:18;;;;;;;;;;;;;;;18.70;45.68;95979.94;6101720;19;1751;-71
2022/10/21 01:31:27;;;;;;;;;;;;;;;18.69;45.87;95980.94;6121368;19;1629;-72
2022/10/21 01:33:37;;;;;;;;;;;;;;;18.70;45.95;95982.59;6119742;19;1774;-71
2022/10/21 01:35:45;;;;;;;;;;;;;;;18.69;45.73;95980.09;6120463;19;1589;-71
2022/10/21 01:37:53;;;;;;;;;;;;;;;18.69;46.11;95985.44;6121103;19;1646;-72
2022/10/21 01:39:58;;;;;;;;;;;;;;;18.69;46.26;95980.94;6110968;19;1832;-71
2022/10/21 01:42:04;;;;;;;;;;;;;;;18.69;46.37;95988.91;6110095;19;1780;-71
2022/10/21 01:44:09;;;;;;;;;;;;;;;18.71;46.88;95994.06;6118661;19;2055;-71
2022/10/21 01:46:15;;;;;;;;;;;;;;;18.72;46.97;95985.06;6118605;19;1126;-71
2022/10/21 01:48:23;;;;;;;;;;;;;;;18.72;46.59;95993.06;6117556;19;1853;-71
2022/10/21 01:50:28;;;;;;;;;;;;;;;18.72;46.86;95995.72;6118164;19;1123;-71
2022/10/21 01:52:32;;;;;;;;;;;;;;;18.72;46.59;95998.38;6100148;19;1670;-71
2022/10/21 01:54:37;;;;;;;;;;;;;;;18.72;46.96;96001.06;6121991;19;1236;-72
2022/10/21 01:56:43;;;;;;;;;;;;;;;18.72;46.98;95998.38;6117380;19;1112;-71
2022/10/21 01:58:48;;;;;;;;;;;;;;;18.72;46.79;95996.59;6118228;19;1512;-71
2022/10/21 02:00:52;;;;;;;;;;;;;;;18.72;46.91;95990.41;6121624;19;1734;-71
2022/10/21 02:02:57;;;;;;;;;;;;;;;18.71;46.93;95996.75;6112288;19;1801;-72
2022/10/21 02:05:07;;;;;;;;;;;;;;;18.71;46.82;95996.75;6108177;19;1334;-71
2022/10/21 02:07:11;;;;;;;;;;;;;;;18.70;46.64;95995.91;6120272;19;1837;-71
2022/10/21 02:09:14;;;;;;;;;;;;;;;18.71;46.52;96000.22;6119712;19;1971;-71
2022/10/21 02:11:18;;;;;;;;;;;;;;;18.71;46.87;96000.22;6117667;19;1435;-71
2022/10/21 02:13:24;;;;;;;;;;;;;;;18.71;46.77;95996.75;6119389;19;1542;-72
2022/10/21 02:15:29;;;;;;;;;;;;;;;18.70;46.39;96005.75;6099702;19;1641;-71
2022/10/21 02:17:33;;;;;;;;;;;;;;;18.71;46.40;96005.56;6118527;19;1611;-72
2022/10/21 02:19:36;;;;;;;;;;;;;;;18.71;46.68;95997.56;6120573;19;1407;-71
2022/10/21 02:21:42;;;;;;;;;;;;;;;18.72;46.34;95995.72;6123658;19;1424;-71
2022/10/21 02:23:51;;;;;;;;;;;;;;;18.72;46.59;96004.56;6125175;19;1652;-71
2022/10/21 02:25:55;;;;;;;;;;;;;;;18.72;46.14;96006.38;6110037;19;1648;-72
2022/10/21 02:27:58;;;;;;;;;;;;;;;18.71;46.23;96002.06;6121750;19;1841;-72
2022/10/21 02:30:02;;;;;;;;;;;;;;;18.70;46.27;96009.22;6124648;19;1859;-72
2022/10/21 02:32:13;;;;;;;;;;;;;;;18.71;46.62;96010.06;6125182;19;1776;-72
2022/10/21 02:34:26;;;;;;;;;;;;;;;18.70;46.26;96005.75;6125161;19;1620;-72
2022/10/21 02:36:36;;;;;;;;;;;;;;;18.70;46.47;96009.22;6127264;19;1482;-72
2022/10/21 02:38:44;;;;;;;;;;;;;;;18.70;46.49;96013.72;6112275;19;1760;-71
2022/10/21 02:40:51;;;;;;;;;;;;;;;18.70;46.35;96011.06;6126401;19;1730;-71
2022/10/21 02:42:58;;;;;;;;;;;;;;;18.70;46.46;96003.09;6124868;19;1703;-72
2022/10/21 02:45:03;;;;;;;;;;;;;;;18.70;46.17;96011.06;6125698;19;1656;-71
2022/10/21 02:47:07;;;;;;;;;;;;;;;18.69;46.14;96006.72;6125624;19;1850;-71
2022/10/21 02:49:10;;;;;;;;;;;;;;;18.69;46.61;96012.06;6104457;19;1904;-73
2022/10/21 02:51:14;;;;;;;;;;;;;;;18.71;47.05;96005.56;6126167;19;1452;-70
2022/10/21 02:53:17;;;;;;;;;;;;;;;18.74;47.00;96005.19;6122704;19;1777;-70
2022/10/21 02:55:23;;;;;;;;;;;;;;;18.76;46.79;96010.38;6124144;19;1768;-74
2022/10/21 02:57:26;;;;;;;;;;;;;;;18.68;47.29;96007.75;6124488;19;1804;-72
2022/10/21 02:59:30;;;;;;;;;;;;;;;18.71;47.32;96010.06;6113733;19;1317;-70
2022/10/21 03:01:33;;;;;;;;;;;;;;;18.48;44.83;96008.16;6113752;19;2086;-73
2022/10/21 03:03:36;;;;;;;;;;;;;;;17.40;40.76;96007.75;6124618;19;1506;-74
2022/10/21 03:05:40;;;;;;;;;;;;;;;16.82;39.80;96014.06;6123633;19;1766;-72
2022/10/21 03:07:43;;;;;;;;;;;;;;;16.70;39.85;96014.34;6120951;19;1844;-72
2022/10/21 03:09:46;;;;;;;;;;;;;;;16.59;39.55;96022.59;6122743;19;1647;-71
2022/10/21 03:11:52;;;;;;;;;;;;;;;16.42;39.10;96021.72;6105783;19;1744;-71
2022/10/21 03:13:56;;;;;;;;;;;;;;;16.30;38.80;96021.19;6126146;19;1808;-71
2022/10/21 03:15:59;;;;;;;;;;;;;;;16.21;39.00;96024.78;6125362;19;1492;-71
2022/10/21 03:18:02;;;;;;;;;;;;;;;16.16;38.87;96024.44;6122480;19;1692;-71
2022/10/21 03:20:06;;;;;;;;;;;;;;;16.23;38.58;96035.22;6125325;19;1641;-72
2022/10/21 03:22:09;;;;;;;;;;;;;;;16.12;38.61;96030.22;6113261;19;1779;-71
2022/10/21 03:24:13;;;;;;;;;;;;;;;16.03;38.42;96026.69;6113587;19;2046;-71
2022/10/21 03:26:16;;;;;;;;;;;;;;;15.91;38.89;96028.78;6122710;19;1790;-72
2022/10/21 03:28:22;;;;;;;;;;;;;;;15.90;38.36;96026.28;6123664;19;1856;-71
2022/10/21 03:30:25;;;;;;;;;;;;;;;15.79;38.35;96028.22;6125550;19;1487;-71
2022/10/21 03:32:29;;;;;;;;;;;;;;;15.93;38.61;96039.22;6120574;19;1050;-71
2022/10/21 03:34:32;;;;;;;;;;;;;;;15.86;38.12;96031.91;6104562;19;1228;-71
2022/10/21 03:36:35;;;;;;;;;;;;;;;15.71;37.94;96037.91;6124684;19;1756;-69
2022/10/21 03:38:38;;;;;;;;;;;;;;;16.31;38.31;96036.09;6121958;19;986;-69
2022/10/21 03:40:42;;;;;;;;;;;;;;;16.81;38.72;96030.97;6121043;19;1647;-70
2022/10/21 03:42:45;;;;;;;;;;;;;;;17.11;38.59;96033.00;6123263;19;1797;-71
2022/10/21 03:44:51;;;;;;;;;;;;;;;17.34;38.67;96035.00;6121244;19;1755;-71
2022/10/21 03:46:54;;;;;;;;;;;;;;;17.50;38.95;96028.84;6101291;19;1657;-70
2022/10/21 03:48:58;;;;;;;;;;;;;;;17.60;40.12;96035.63;6122305;19;1861;-70
2022/10/21 03:51:01;;;;;;;;;;;;;;;17.70;40.49;96042.59;6122145;19;1499;-78
2022/10/21 03:53:04;;;;;;;;;;;;;;;17.77;40.10;96039.13;6125218;19;1570;-70
2022/10/21 03:55:09;;;;;;;;;;;;;;;17.82;40.08;96036.81;6123279;19;1467;-69
2022/10/21 03:57:12;;;;;;;;;;;;;;;17.86;40.37;96035.47;6108763;19;1712;-69
2022/10/21 03:59:16;;;;;;;;;;;;;;;17.90;40.72;96038.63;6118675;19;1634;-69
2022/10/21 04:01:21;;;;;;;;;;;;;;;17.94;40.80;96041.78;6120228;19;1699;-70
2022/10/21 04:03:25;;;;;;;;;;;;;;;17.98;40.87;96041.28;6121608;19;1488;-70
2022/10/21 04:05:28;;;;;;;;;;;;;;;18.03;40.63;96033.59;6119825;19;1417;-70
2022/10/21 04:07:31;;;;;;;;;;;;;;;18.05;40.75;96036.91;6120781;19;1865;-71
2022/10/21 04:09:35;;;;;;;;;;;;;;;18.06;41.00;96033.25;6099574;19;1300;-72
2022/10/21 04:11:38;;;;;;;;;;;;;;;18.08;40.97;96033.91;6123178;19;1313;-71
2022/10/21 04:13:41;;;;;;;;;;;;;;;18.08;41.46;96041.06;6122049;19;1699;-71
2022/10/21 04:15:45;;;;;;;;;;;;;;;18.09;41.44;96045.38;6122481;19;1724;-72
2022/10/21 04:17:51;;;;;;;;;;;;;;;18.09;41.49;96038.22;6123349;19;1856;-72
2022/10/21 04:19:54;;;;;;;;;;;;;;;18.08;41.24;96041.91;6110713;19;1032;-71
2022/10/21 04:21:57;;;;;;;;;;;;;;;18.09;41.11;96038.22;6109678;19;1018;-71
2022/10/21 04:24:01;;;;;;;;;;;;;;;18.10;41.50;96039.06;6120794;19;2213;-72
2022/10/21 04:26:04;;;;;;;;;;;;;;;18.12;41.03;96030.91;6120157;19;1134;-72
2022/10/21 04:28:07;;;;;;;;;;;;;;;18.13;41.20;96030.75;6120270;19;1850;-71
2022/10/21 04:30:11;;;;;;;;;;;;;;;18.13;41.18;96033.41;6120665;19;1053;-72
2022/10/21 04:32:14;;;;;;;;;;;;;;;18.13;40.77;96032.59;6102713;19;1143;-71
2022/10/21 04:34:20;;;;;;;;;;;;;;;18.13;40.95;96032.59;6120360;19;1009;-71
2022/10/21 04:36:23;;;;;;;;;;;;;;;18.15;40.96;96036.72;6120512;19;1040;-70
2022/10/21 04:38:27;;;;;;;;;;;;;;;18.16;40.63;96037.56;6119628;19;1029;-70
2022/10/21 04:40:30;;;;;;;;;;;;;;;18.15;40.71;96036.72;6120011;19;1048;-70
2022/10/21 04:42:34;;;;;;;;;;;;;;;18.15;41.04;96035.88;6109054;19;1012;-70
2022/10/21 04:44:39;;;;;;;;;;;;;;;18.16;41.03;96032.25;6108362;19;1039;-70
2022/10/21 04:46:42;;;;;;;;;;;;;;;18.15;40.93;96041.19;6117460;19;1205;-71
2022/10/21 04:48:45;;;;;;;;;;;;;;;18.15;40.98;96035.88;6116138;19;1836;-71
2022/10/21 04:50:53;;;;;;;;;;;;;;;18.14;41.11;96034.25;6116631;19;1176;-71
2022/10/21 04:52:56;;;;;;;;;;;;;;;18.14;41.08;96028.91;6117066;19;1510;-70
2022/10/21 04:54:59;;;;;;;;;;;;;;;18.14;41.20;96040.38;6095865;19;1098;-71
2022/10/21 04:57:02;;;;;;;;;;;;;;;18.13;41.26;96033.41;6117038;19;1026;-70
2022/10/21 04:59:06;;;;;;;;;;;;;;;18.14;40.82;96035.06;6116688;19;1053;-71
2022/10/21 05:01:09;;;;;;;;;;;;;;;18.14;41.09;96031.56;6116182;19;1073;-70
2022/10/21 05:03:16;;;;;;;;;;;;;;;18.15;40.89;96035.88;6118375;19;1033;-70
2022/10/21 05:05:19;;;;;;;;;;;;;;;18.15;40.86;96030.56;6109351;19;1289;-70
2022/10/21 05:07:25;;;;;;;;;;;;;;;18.14;41.27;96040.38;6107636;19;1116;-70
2022/10/21 05:09:28;;;;;;;;;;;;;;;18.13;41.22;96033.41;6117714;19;1846;-71
2022/10/21 05:11:32;;;;;;;;;;;;;;;18.15;41.14;96033.22;6118802;19;1151;-71
2022/10/21 05:13:35;;;;;;;;;;;;;;;18.13;41.19;96033.41;6118914;19;1144;-71
2022/10/21 05:15:38;;;;;;;;;;;;;;;18.14;41.17;96039.56;6118266;19;1049;-71
2022/10/21 05:17:42;;;;;;;;;;;;;;;18.14;41.14;96044.88;6098173;19;1196;-71
2022/10/21 05:19:45;;;;;;;;;;;;;;;18.16;41.01;96040.22;6119284;19;971;-69
2022/10/21 05:21:48;;;;;;;;;;;;;;;18.17;41.28;96039.22;6118636;19;1136;-70
2022/10/21 05:23:55;;;;;;;;;;;;;;;18.18;41.52;96046.19;6118793;19;1140;-71
2022/10/21 05:25:58;;;;;;;;;;;;;;;18.20;41.84;96050.34;6120039;19;955;-70
2022/10/21 05:28:02;;;;;;;;;;;;;;;18.21;41.78;96048.50;6110590;19;1850;-70
2022/10/21 05:30:05;;;;;;;;;;;;;;;18.23;41.53;96049.16;6109133;19;1523;-69
2022/10/21 05:32:09;;;;;;;;;;;;;;;18.22;41.87;96047.50;6118955;19;979;-69
2022/10/21 05:34:12;;;;;;;;;;;;;;;18.23;41.51;96051.81;6119384;19;1084;-69
2022/10/21 05:36:16;;;;;;;;;;;;;;;18.24;41.58;96062.31;6119544;19;1044;-71
2022/10/21 05:38:19;;;;;;;;;;;;;;;18.25;42.06;96057.81;6118986;19;1061;-68
2022/10/21 05:40:25;;;;;;;;;;;;;;;18.26;41.89;96054.97;6098013;19;1123;-66
2022/10/21 05:42:29;;;;;;;;;;;;;;;18.27;42.02;96061.97;6118318;19;1061;-71
2022/10/21 05:44:32;;;;;;;;;;;;;;;18.28;42.54;96062.78;6118613;19;954;-68
2022/10/21 05:46:35;;;;;;;;;;;;;;;18.27;42.36;96061.97;6118190;19;1284;-68
2022/10/21 05:48:39;;;;;;;;;;;;;;;18.28;42.45;96060.13;6117876;19;1846;-68
2022/10/21 05:50:42;;;;;;;;;;;;;;;18.28;42.53;96062.78;6107901;19;1117;-68
2022/10/21 05:52:45;;;;;;;;;;;;;;;18.27;41.71;96069.13;6105985;19;1065;-68
2022/10/21 05:54:49;;;;;;;;;;;;;;;18.28;41.62;96073.44;6120398;19;1057;-67
2022/10/21 05:56:56;;;;;;;;;;;;;;;18.29;41.44;96064.44;6123909;19;1041;-67
2022/10/21 05:59:00;;;;;;;;;;;;;;;18.31;41.92;96075.75;6124248;19;1061;-67
2022/10/21 06:01:03;;;;;;;;;;;;;;;18.31;41.66;96073.91;6123890;19;1029;-67
2022/10/21 06:03:06;;;;;;;;;;;;;;;18.33;41.95;96068.44;6104394;19;998;-67
2022/10/21 06:05:10;;;;;;;;;;;;;;;18.33;41.95;96081.72;6124317;19;1290;-67
2022/10/21 06:07:13;;;;;;;;;;;;;;;18.35;41.98;96078.88;6123329;19;1049;-77
2022/10/21 06:09:17;;;;;;;;;;;;;;;18.34;41.89;96088.69;6123974;19;1849;-78
2022/10/21 06:11:20;;;;;;;;;;;;;;;18.35;41.91;96090.34;6124437;19;1151;-66
2022/10/21 06:13:26;;;;;;;;;;;;;;;18.37;42.29;96088.34;6115179;19;1104;-67
2022/10/21 06:15:30;;;;;;;;;;;;;;;18.37;42.49;96098.19;6113407;19;1115;-68
2022/10/21 06:17:33;;;;;;;;;;;;;;;18.37;42.28;96092.84;6123711;19;1094;-68
2022/10/21 06:19:47;;;;;;;;;;;;;;;18.37;42.09;96088.34;6127443;19;953;-76
2022/10/21 06:21:59;;;;;;;;;;;;;;;18.38;42.10;96095.34;6127405;19;1144;-76
2022/10/21 06:24:04;;;;;;;;;;;;;;;18.37;42.32;96099.00;6124949;19;1500;-75
2022/10/21 06:26:08;;;;;;;;;;;;;;;18.37;42.16;96101.66;6109215;19;1051;-76
2022/10/21 06:28:11;;;;;;;;;;;;;;;18.38;42.45;96100.69;6123055;19;1417;-69
2022/10/21 06:30:18;;;;;;;;;;;;;;;18.38;42.44;96102.50;6120882;19;1911;-67
2022/10/21 06:32:21;;;;;;;;;;;;;;;18.39;42.45;96101.50;6124013;19;1108;-76
2022/10/21 06:34:25;;;;;;;;;;;;;;;18.39;42.52;96107.66;6125163;19;1012;-75
2022/10/21 06:36:29;;;;;;;;;;;;;;;18.40;42.57;96109.31;6106686;19;1132;-74
2022/10/21 06:38:33;;;;;;;;;;;;;;;18.41;42.28;96110.97;6122437;19;1206;-65
2022/10/21 06:40:36;;;;;;;;;;;;;;;18.40;42.58;96114.63;6123082;19;1132;-67
2022/10/21 06:42:39;;;;;;;;;;;;;;;18.43;42.77;96116.13;6123672;19;1113;-71
2022/10/21 06:44:43;;;;;;;;;;;;;;;18.41;42.61;96110.97;6123812;19;1024;-74
2022/10/21 06:46:49;;;;;;;;;;;;;;;18.42;42.58;96109.16;6123788;19;1073;-75
2022/10/21 06:48:52;;;;;;;;;;;;;;;18.42;42.89;96112.63;6107028;19;1841;-71
2022/10/21 06:50:58;;;;;;;;;;;;;;;18.43;42.53;96111.63;6122748;19;1073;-62
2022/10/21 06:53:01;;;;;;;;;;;;;;;18.43;42.13;96114.28;6121266;19;1143;-63
2022/10/21 06:55:04;;;;;;;;;;;;;;;18.43;42.59;96116.94;6122309;19;1083;-63
2022/10/21 06:57:08;;;;;;;;;;;;;;;18.43;42.67;96116.94;6122383;19;1135;-62
2022/10/21 06:59:11;;;;;;;;;;;;;;;18.42;42.49;96120.63;6099357;19;1198;-62
2022/10/21 07:01:15;;;;;;;;;;;;;;;18.43;42.69;96122.25;6121361;19;1045;-62
2022/10/21 07:03:21;;;;;;;;;;;;;;;18.43;42.85;96119.59;6121856;19;1022;-62
2022/10/21 07:05:25;;;;;;;;;;;;;;;18.43;42.81;96118.78;6122003;19;1307;-63
2022/10/21 07:07:28;;;;;;;;;;;;;;;18.42;42.79;96112.63;6118685;19;1074;-63
2022/10/21 07:09:32;;;;;;;;;;;;;;;18.44;42.91;96115.09;6121163;19;1856;-63
2022/10/21 07:11:35;;;;;;;;;;;;;;;18.44;43.14;96118.63;6102676;19;1068;-64
2022/10/21 07:13:38;;;;;;;;;;;;;;;18.44;43.07;96117.75;6121924;19;1018;-63
2022/10/21 07:15:41;;;;;;;;;;;;;;;18.43;43.15;96114.28;6121445;19;952;-63
2022/10/21 07:17:45;;;;;;;;;;;;;;;18.43;43.27;96116.94;6121518;19;1168;-63
2022/10/21 07:19:51;;;;;;;;;;;;;;;18.45;43.18;96116.78;6121572;19;1445;-63
2022/10/21 07:21:54;;;;;;;;;;;;;;;18.45;43.11;96111.47;6099619;19;1067;-63
2022/10/21 07:23:58;;;;;;;;;;;;;;;18.46;43.19;96111.28;6119678;19;1427;-63
2022/10/21 07:26:04;;;;;;;;;;;;;;;18.47;42.55;96115.63;6121943;19;1029;-63
2022/10/21 07:28:07;;;;;;;;;;;;;;;18.49;42.22;96110.09;6121326;19;1144;-63
2022/10/21 07:30:11;;;;;;;;;;;;;;;18.48;42.55;96111.94;6119826;19;1854;-62
2022/10/21 07:32:14;;;;;;;;;;;;;;;18.48;42.69;96117.25;6121082;19;1104;-63
2022/10/21 07:34:18;;;;;;;;;;;;;;;18.48;42.69;96122.59;6101785;19;1112;-63
2022/10/21 07:36:25;;;;;;;;;;;;;;;18.47;42.79;96115.63;6120794;19;1124;-62
2022/10/21 07:38:29;;;;;;;;;;;;;;;18.47;43.01;96120.94;6121580;19;1041;-61
2022/10/21 07:40:32;;;;;;;;;;;;;;;18.47;42.87;96115.63;6121203;19;1031;-62
2022/10/21 07:42:35;;;;;;;;;;;;;;;18.47;42.83;96120.94;6121599;19;950;-63
2022/10/21 07:44:39;;;;;;;;;;;;;;;18.47;42.73;96118.28;6099364;19;1025;-62
2022/10/21 07:46:42;;;;;;;;;;;;;;;18.46;43.03;96107.78;6120898;19;967;-63
2022/10/21 07:48:46;;;;;;;;;;;;;;;18.46;43.17;96115.78;6120708;19;1136;-62
2022/10/21 07:50:49;;;;;;;;;;;;;;;18.46;43.05;96103.28;6118536;19;1841;-63
2022/10/21 07:52:55;;;;;;;;;;;;;;;18.47;43.08;96109.47;6121095;19;959;-63
2022/10/21 07:55:00;;;;;;;;;;;;;;;18.46;42.99;96103.28;6118062;19;1439;-64
2022/10/21 07:57:03;;;;;;;;;;;;;;;18.46;42.95;96097.16;6101725;19;1481;-63
2022/10/21 07:59:07;;;;;;;;;;;;;;;18.46;43.03;96097.97;6119450;19;1079;-62
2022/10/21 08:01:11;;;;;;;;;;;;;;;18.47;42.87;96106.81;6120321;19;1155;-63
2022/10/21 08:03:14;;;;;;;;;;;;;;;18.46;43.12;96105.94;6120433;19;1132;-64
2022/10/21 08:05:18;;;;;;;;;;;;;;;18.47;43.24;96098.81;6119993;19;1294;-62
2022/10/21 08:07:21;;;;;;;;;;;;;;;18.47;42.83;96104.97;6097551;19;1073;-63
2022/10/21 08:09:31;;;;;;;;;;;;;;;18.48;43.00;96105.78;6120121;19;1826;-63
2022/10/21 08:11:35;;;;;;;;;;;;;;;18.51;43.42;96100.13;6120265;19;1465;-63
2022/10/21 08:13:40;;;;;;;;;;;;;;;18.51;43.10;96092.97;6119761;19;1017;-61
2022/10/21 08:15:44;;;;;;;;;;;;;;;18.49;43.02;96092.28;6120598;19;989;-62
2022/10/21 08:17:47;;;;;;;;;;;;;;;18.50;43.24;96098.47;6112205;19;1031;-62
2022/10/21 08:19:51;;;;;;;;;;;;;;;17.95;41.27;96094.78;6106411;19;1127;-63
2022/10/21 08:21:54;;;;;;;;;;;;;;;17.62;41.45;96097.44;6119568;19;955;-63
2022/10/21 08:23:57;;;;;;;;;;;;;;;17.49;40.96;96101.59;6117907;19;1386;-64
2022/10/21 08:26:03;;;;;;;;;;;;;;;17.41;40.89;96097.94;6119465;19;1243;-64
2022/10/21 08:28:07;;;;;;;;;;;;;;;17.25;41.06;96091.78;6117307;19;1524;-63
2022/10/21 08:30:11;;;;;;;;;;;;;;;17.24;41.30;96087.44;6095054;19;1838;-63
2022/10/21 08:32:14;;;;;;;;;;;;;;;17.19;41.07;96094.09;6119867;19;954;-63
2022/10/21 08:34:18;;;;;;;;;;;;;;;17.17;40.80;96090.75;6119822;19;1266;-63
2022/10/21 08:36:23;;;;;;;;;;;;;;;17.08;40.85;96094.41;6118872;19;1152;-63
2022/10/21 08:38:27;;;;;;;;;;;;;;;17.06;40.87;96082.28;6119439;19;1006;-63
2022/10/21 08:40:31;;;;;;;;;;;;;;;17.07;40.71;96090.09;6108541;19;1068;-63
2022/10/21 08:42:43;;;;;;;;;;;;;;;17.35;40.84;96084.47;6108011;19;1158;-63
2022/10/21 08:44:53;;;;;;;;;;;;;;;17.68;40.97;96076.50;6118833;19;1108;-62
2022/10/21 08:46:59;;;;;;;;;;;;;;;17.84;41.04;96072.03;6118568;19;1435;-62
2022/10/21 08:49:08;;;;;;;;;;;;;;;17.94;40.97;96068.38;6118129;19;1437;-62
2022/10/21 08:51:17;;;;;;;;;;;;;;;18.00;40.76;96063.19;6117400;19;1838;-62
2022/10/21 08:53:23;;;;;;;;;;;;;;;18.03;41.28;96065.50;6095162;19;1515;-63
2022/10/21 08:55:31;;;;;;;;;;;;;;;18.07;41.05;96056.19;6117705;19;1382;-62
2022/10/21 08:57:37;;;;;;;;;;;;;;;18.09;41.12;96064.81;6119561;19;1068;-74
2022/10/21 08:59:41;;;;;;;;;;;;;;;18.17;40.62;96066.63;6119304;19;1391;-73
2022/10/21 09:01:50;;;;;;;;;;;;;;;18.22;40.55;96068.78;6120103;19;1010;-73
2022/10/21 09:03:56;;;;;;;;;;;;;;;18.25;40.45;96063.13;6103156;19;1067;-74
2022/10/21 09:06:13;;;;;;;;;;;;;;;18.27;40.49;96061.97;6117657;19;1504;-74
2022/10/21 09:08:22;;;;;;;;;;;;;;;18.30;40.42;96058.13;6118072;19;1229;-74
2022/10/21 09:10:30;;;;;;;;;;;;;;;18.29;40.50;96056.44;6119388;19;1861;-74
2022/10/21 09:12:37;;;;;;;;;;;;;;;18.31;40.53;96057.13;6116961;19;1439;-64
2022/10/21 09:14:55;;;;;;;;;;;;;;;18.35;40.88;96060.25;6107266;19;1186;-63
2022/10/21 09:17:04;;;;;;;;;;;;;;;18.35;40.88;96047.78;6107221;19;1113;-63
2022/10/21 09:19:13;;;;;;;;;;;;;;;18.34;41.07;96040.81;6118452;19;1111;-63
2022/10/21 09:21:20;;;;;;;;;;;;;;;18.35;40.83;96042.44;6117956;19;1320;-63
2022/10/21 09:23:41;;;;;;;;;;;;;;;18.35;41.25;96039.78;6119290;19;1076;-61
2022/10/21 09:25:48;;;;;;;;;;;;;;;18.37;41.06;96036.97;6110806;19;1542;-63
2022/10/21 09:27:52;;;;;;;;;;;;;;;18.35;41.53;96036.31;6106654;19;1026;-62
2022/10/21 09:30:00;;;;;;;;;;;;;;;18.35;41.63;96036.31;6120202;19;1807;-62
2022/10/21 09:32:11;;;;;;;;;;;;;;;18.33;41.44;96032.00;6125613;19;1308;-62
2022/10/21 09:34:18;;;;;;;;;;;;;;;18.35;41.35;96033.66;6124785;19;1136;-63
2022/10/21 09:36:25;;;;;;;;;;;;;;;18.36;41.60;96032.66;6124416;19;1054;-61
2022/10/21 09:38:30;;;;;;;;;;;;;;;18.33;41.56;96021.34;6102544;19;1210;-62
2022/10/21 09:40:34;;;;;;;;;;;;;;;18.34;41.76;96019.53;6124361;19;1128;-64
2022/10/21 09:42:38;;;;;;;;;;;;;;;18.34;41.93;96019.53;6123748;19;1097;-63
2022/10/21 09:44:41;;;;;;;;;;;;;;;18.35;41.70;96021.16;6124020;19;1041;-63
2022/10/21 09:46:49;;;;;;;;;;;;;;;18.38;41.95;96020.84;6123908;19;958;-62
2022/10/21 09:48:53;;;;;;;;;;;;;;;18.37;41.85;96013.03;6113691;19;1124;-62
2022/10/21 09:50:58;;;;;;;;;;;;;;;18.37;42.12;96018.34;6115739;19;1833;-62
2022/10/21 09:53:04;;;;;;;;;;;;;;;18.37;41.82;96019.19;6124251;19;1009;-63
2022/10/21 09:55:08;;;;;;;;;;;;;;;18.37;42.37;96016.50;6124293;19;1018;-63
2022/10/21 09:57:15;;;;;;;;;;;;;;;18.38;41.92;96026.19;6123657;19;985;-63
2022/10/21 09:59:22;;;;;;;;;;;;;;;18.37;42.39;96019.19;6123831;19;1487;-63
2022/10/21 10:01:25;;;;;;;;;;;;;;;18.37;42.00;96029.81;6102203;19;1087;-62
2022/10/21 10:03:36;;;;;;;;;;;;;;;18.39;42.45;96021.69;6123964;19;1119;-63
2022/10/21 10:05:42;;;;;;;;;;;;;;;18.40;42.32;96029.47;6122842;19;1310;-64
2022/10/21 10:07:46;;;;;;;;;;;;;;;18.40;42.55;96031.31;6121629;19;1508;-63
2022/10/21 10:09:50;;;;;;;;;;;;;;;18.40;42.07;96015.34;6121586;19;1869;-63
2022/10/21 10:11:55;;;;;;;;;;;;;;;18.40;42.37;96018.00;6099329;19;1389;-67
2022/10/21 10:13:59;;;;;;;;;;;;;;;18.41;42.13;96015.19;6123710;19;1267;-63
2022/10/21 10:16:16;;;;;;;;;;;;;;;18.41;42.22;96012.53;6123411;19;1530;-64
2022/10/21 10:18:23;;;;;;;;;;;;;;;18.40;42.55;96013.50;6123576;19;1069;-64
2022/10/21 10:20:29;;;;;;;;;;;;;;;18.41;42.57;96007.19;6125584;19;1760;-63
2022/10/21 10:22:34;;;;;;;;;;;;;;;18.42;42.41;96000.88;6113895;19;1064;-64
2022/10/21 10:24:39;;;;;;;;;;;;;;;18.42;42.23;96000.03;6114301;19;1308;-63
2022/10/21 10:26:42;;;;;;;;;;;;;;;18.44;42.62;96008.66;6122600;19;985;-64
2022/10/21 10:28:50;;;;;;;;;;;;;;;18.43;42.29;96002.50;6126293;19;1485;-63
2022/10/21 10:30:56;;;;;;;;;;;;;;;18.47;42.35;96003.84;6122485;19;1845;-73
2022/10/21 10:32:59;;;;;;;;;;;;;;;18.49;42.45;95996.47;6125024;19;1139;-74
2022/10/21 10:35:04;;;;;;;;;;;;;;;18.49;42.06;95988.50;6106808;19;1123;-75
2022/10/21 10:37:19;;;;;;;;;;;;;;;18.51;43.86;95994.50;6124692;19;1022;-75
2022/10/21 10:39:25;;;;;;;;;;;;;;;18.53;46.46;95989.81;6123565;19;1143;-74
2022/10/21 10:41:39;;;;;;;;;;;;;;;18.57;46.38;95989.47;6123707;19;1026;-75
2022/10/21 10:43:46;;;;;;;;;;;;;;;18.55;45.81;95985.16;6123448;19;1025;-72
2022/10/21 10:45:53;;;;;;;;;;;;;;;18.59;45.00;95979.50;6106614;19;1156;-64
2022/10/21 10:47:57;;;;;;;;;;;;;;;18.59;45.11;95968.84;6122434;19;1020;-66
2022/10/21 10:50:00;;;;;;;;;;;;;;;18.60;44.59;95975.81;6123599;19;1849;-71
2022/10/21 10:52:09;;;;;;;;;;;;;;;18.61;44.79;95973.00;6120894;19;1457;-61
2022/10/21 10:54:23;;;;;;;;;;;;;;;18.60;44.62;95959.84;6123568;19;1044;-70
2022/10/21 10:56:30;;;;;;;;;;;;;;;18.60;44.50;95959.84;6118208;19;1078;-71
2022/10/21 10:58:35;;;;;;;;;;;;;;;18.59;44.71;95947.56;6113915;19;1120;-70
2022/10/21 11:00:42;;;;;;;;;;;;;;;18.62;44.56;95949.84;6123372;19;1140;-68